sensor_id;sensor_type;location;lat;lon;timestamp;P1;durP1;ratioP1;P2;durP2;ratioP2
75851;SDS011;64500;52.632;20.656;2023-02-23T00:02:02;15.90;;;8.90;;
75851;SDS011;64500;52.632;20.656;2023-02-23T00:04:32;16.80;;;8.60;;
75851;SDS011;64500;52.632;20.656;2023-02-23T00:07:00;14.60;;;8.40;;
75851;SDS011;64500;52.632;20.656;2023-02-23T00:09:27;15.20;;;9.00;;
75851;SDS011;64500;52.632;20.656;2023-02-23T00:14:34;14.90;;;7.70;;
75851;SDS011;64500;52.632;20.656;2023-02-23T00:17:03;16.50;;;8.40;;
75851;SDS011;64500;52.632;20.656;2023-02-23T00:19:36;16.00;;;8.60;;
75851;SDS011;64500;52.632;20.656;2023-02-23T00:22:03;17.30;;;9.10;;
75851;SDS011;64500;52.632;20.656;2023-02-23T00:24:30;16.70;;;9.30;;
75851;SDS011;64500;52.632;20.656;2023-02-23T00:26:57;16.10;;;9.30;;
75851;SDS011;64500;52.632;20.656;2023-02-23T00:29:24;18.70;;;9.00;;
75851;SDS011;64500;52.632;20.656;2023-02-23T00:31:51;15.80;;;9.00;;
75851;SDS011;64500;52.632;20.656;2023-02-23T00:34:19;16.20;;;9.20;;
75851;SDS011;64500;52.632;20.656;2023-02-23T00:36:50;15.60;;;8.30;;
75851;SDS011;64500;52.632;20.656;2023-02-23T00:39:20;14.10;;;8.40;;
75851;SDS011;64500;52.632;20.656;2023-02-23T00:41:52;14.40;;;8.70;;
75851;SDS011;64500;52.632;20.656;2023-02-23T00:44:20;14.70;;;8.10;;
75851;SDS011;64500;52.632;20.656;2023-02-23T00:46:49;14.00;;;8.20;;
75851;SDS011;64500;52.632;20.656;2023-02-23T00:49:17;14.90;;;8.40;;
75851;SDS011;64500;52.632;20.656;2023-02-23T00:51:46;14.40;;;7.90;;
75851;SDS011;64500;52.632;20.656;2023-02-23T00:54:14;14.60;;;8.60;;
75851;SDS011;64500;52.632;20.656;2023-02-23T00:56:43;12.60;;;7.30;;
75851;SDS011;64500;52.632;20.656;2023-02-23T00:59:10;14.90;;;8.20;;
75851;SDS011;64500;52.632;20.656;2023-02-23T01:01:39;14.00;;;8.20;;
75851;SDS011;64500;52.632;20.656;2023-02-23T01:04:10;13.70;;;8.10;;
75851;SDS011;64500;52.632;20.656;2023-02-23T01:06:39;13.80;;;8.30;;
75851;SDS011;64500;52.632;20.656;2023-02-23T01:09:09;13.60;;;7.90;;
75851;SDS011;64500;52.632;20.656;2023-02-23T01:11:40;14.40;;;7.90;;
75851;SDS011;64500;52.632;20.656;2023-02-23T01:14:08;12.60;;;7.70;;
75851;SDS011;64500;52.632;20.656;2023-02-23T01:16:36;14.10;;;7.90;;
75851;SDS011;64500;52.632;20.656;2023-02-23T01:19:04;15.30;;;7.70;;
75851;SDS011;64500;52.632;20.656;2023-02-23T01:21:33;13.80;;;7.70;;
75851;SDS011;64500;52.632;20.656;2023-02-23T01:24:02;12.40;;;7.30;;
75851;SDS011;64500;52.632;20.656;2023-02-23T01:26:31;13.60;;;7.10;;
75851;SDS011;64500;52.632;20.656;2023-02-23T01:29:01;13.70;;;7.70;;
75851;SDS011;64500;52.632;20.656;2023-02-23T01:31:30;11.40;;;6.80;;
75851;SDS011;64500;52.632;20.656;2023-02-23T01:33:58;13.20;;;7.10;;
75851;SDS011;64500;52.632;20.656;2023-02-23T01:36:27;12.50;;;7.00;;
75851;SDS011;64500;52.632;20.656;2023-02-23T01:38:56;11.80;;;6.50;;
75851;SDS011;64500;52.632;20.656;2023-02-23T01:41:26;12.80;;;7.10;;
75851;SDS011;64500;52.632;20.656;2023-02-23T01:46:30;12.80;;;7.20;;
75851;SDS011;64500;52.632;20.656;2023-02-23T01:48:59;11.70;;;6.70;;
75851;SDS011;64500;52.632;20.656;2023-02-23T01:51:28;12.80;;;7.20;;
75851;SDS011;64500;52.632;20.656;2023-02-23T01:54:04;12.70;;;7.00;;
75851;SDS011;64500;52.632;20.656;2023-02-23T01:56:43;12.00;;;7.20;;
75851;SDS011;64500;52.632;20.656;2023-02-23T01:59:12;13.30;;;7.00;;
75851;SDS011;64500;52.632;20.656;2023-02-23T02:01:41;12.40;;;6.80;;
75851;SDS011;64500;52.632;20.656;2023-02-23T02:04:10;12.70;;;6.90;;
75851;SDS011;64500;52.632;20.656;2023-02-23T02:06:43;12.30;;;6.50;;
75851;SDS011;64500;52.632;20.656;2023-02-23T02:09:13;12.70;;;7.10;;
75851;SDS011;64500;52.632;20.656;2023-02-23T02:11:45;12.70;;;6.70;;
75851;SDS011;64500;52.632;20.656;2023-02-23T02:14:21;11.60;;;6.90;;
75851;SDS011;64500;52.632;20.656;2023-02-23T02:22:28;11.80;;;7.00;;
75851;SDS011;64500;52.632;20.656;2023-02-23T02:28:02;11.60;;;6.70;;
75851;SDS011;64500;52.632;20.656;2023-02-23T02:39:39;11.90;;;6.80;;
75851;SDS011;64500;52.632;20.656;2023-02-23T02:42:28;13.10;;;7.20;;
75851;SDS011;64500;52.632;20.656;2023-02-23T02:45:04;12.10;;;6.70;;
75851;SDS011;64500;52.632;20.656;2023-02-23T02:47:42;11.90;;;7.00;;
75851;SDS011;64500;52.632;20.656;2023-02-23T02:51:01;11.90;;;7.00;;
75851;SDS011;64500;52.632;20.656;2023-02-23T02:53:38;12.60;;;6.60;;
75851;SDS011;64500;52.632;20.656;2023-02-23T02:56:14;11.50;;;6.70;;
75851;SDS011;64500;52.632;20.656;2023-02-23T02:58:45;11.90;;;6.60;;
75851;SDS011;64500;52.632;20.656;2023-02-23T03:01:16;13.10;;;7.30;;
75851;SDS011;64500;52.632;20.656;2023-02-23T03:04:24;11.80;;;6.70;;
75851;SDS011;64500;52.632;20.656;2023-02-23T03:07:14;11.60;;;6.30;;
75851;SDS011;64500;52.632;20.656;2023-02-23T03:13:00;10.80;;;6.20;;
75851;SDS011;64500;52.632;20.656;2023-02-23T03:16:01;11.60;;;6.70;;
75851;SDS011;64500;52.632;20.656;2023-02-23T03:25:02;11.20;;;6.30;;
75851;SDS011;64500;52.632;20.656;2023-02-23T03:27:55;11.50;;;6.50;;
75851;SDS011;64500;52.632;20.656;2023-02-23T03:30:58;11.70;;;6.40;;
75851;SDS011;64500;52.632;20.656;2023-02-23T03:34:13;11.10;;;6.10;;
75851;SDS011;64500;52.632;20.656;2023-02-23T03:40:19;10.60;;;6.30;;
75851;SDS011;64500;52.632;20.656;2023-02-23T03:43:10;11.80;;;6.40;;
75851;SDS011;64500;52.632;20.656;2023-02-23T03:46:01;11.90;;;6.40;;
75851;SDS011;64500;52.632;20.656;2023-02-23T03:48:50;10.60;;;6.10;;
75851;SDS011;64500;52.632;20.656;2023-02-23T03:51:39;11.00;;;6.20;;
75851;SDS011;64500;52.632;20.656;2023-02-23T03:54:30;11.00;;;6.10;;
75851;SDS011;64500;52.632;20.656;2023-02-23T03:57:20;12.10;;;7.00;;
75851;SDS011;64500;52.632;20.656;2023-02-23T04:00:10;10.50;;;6.00;;
75851;SDS011;64500;52.632;20.656;2023-02-23T04:03:01;10.60;;;5.80;;
75851;SDS011;64500;52.632;20.656;2023-02-23T04:05:52;11.50;;;6.10;;
75851;SDS011;64500;52.632;20.656;2023-02-23T04:08:41;11.30;;;6.00;;
75851;SDS011;64500;52.632;20.656;2023-02-23T04:14:44;11.70;;;5.90;;
75851;SDS011;64500;52.632;20.656;2023-02-23T04:17:19;10.30;;;5.70;;
75851;SDS011;64500;52.632;20.656;2023-02-23T04:19:52;11.30;;;6.00;;
75851;SDS011;64500;52.632;20.656;2023-02-23T04:22:23;10.90;;;6.00;;
75851;SDS011;64500;52.632;20.656;2023-02-23T04:24:50;10.80;;;6.30;;
75851;SDS011;64500;52.632;20.656;2023-02-23T04:27:18;10.90;;;5.90;;
75851;SDS011;64500;52.632;20.656;2023-02-23T04:29:45;10.30;;;6.10;;
75851;SDS011;64500;52.632;20.656;2023-02-23T04:32:14;11.20;;;5.80;;
75851;SDS011;64500;52.632;20.656;2023-02-23T04:34:43;10.60;;;5.90;;
75851;SDS011;64500;52.632;20.656;2023-02-23T04:37:10;11.30;;;6.10;;
75851;SDS011;64500;52.632;20.656;2023-02-23T04:39:38;11.10;;;5.80;;
75851;SDS011;64500;52.632;20.656;2023-02-23T04:42:06;11.20;;;5.90;;
75851;SDS011;64500;52.632;20.656;2023-02-23T04:44:33;10.50;;;5.50;;
75851;SDS011;64500;52.632;20.656;2023-02-23T04:47:00;12.60;;;6.50;;
75851;SDS011;64500;52.632;20.656;2023-02-23T04:49:28;10.50;;;6.10;;
75851;SDS011;64500;52.632;20.656;2023-02-23T04:51:55;11.10;;;6.20;;
75851;SDS011;64500;52.632;20.656;2023-02-23T04:54:22;11.70;;;6.20;;
75851;SDS011;64500;52.632;20.656;2023-02-23T04:56:50;10.80;;;5.90;;
75851;SDS011;64500;52.632;20.656;2023-02-23T04:59:17;11.90;;;5.90;;
75851;SDS011;64500;52.632;20.656;2023-02-23T05:01:44;10.90;;;5.60;;
75851;SDS011;64500;52.632;20.656;2023-02-23T05:04:11;11.10;;;6.10;;
75851;SDS011;64500;52.632;20.656;2023-02-23T05:06:39;11.60;;;6.40;;
75851;SDS011;64500;52.632;20.656;2023-02-23T05:09:06;11.80;;;6.10;;
75851;SDS011;64500;52.632;20.656;2023-02-23T05:11:33;9.90;;;5.40;;
75851;SDS011;64500;52.632;20.656;2023-02-23T05:14:00;11.10;;;6.20;;
75851;SDS011;64500;52.632;20.656;2023-02-23T05:16:27;10.90;;;6.30;;
75851;SDS011;64500;52.632;20.656;2023-02-23T05:18:55;11.30;;;6.10;;
75851;SDS011;64500;52.632;20.656;2023-02-23T05:21:22;11.60;;;6.20;;
75851;SDS011;64500;52.632;20.656;2023-02-23T05:23:49;10.80;;;5.90;;
75851;SDS011;64500;52.632;20.656;2023-02-23T05:26:16;10.70;;;5.80;;
75851;SDS011;64500;52.632;20.656;2023-02-23T05:28:44;11.50;;;6.50;;
75851;SDS011;64500;52.632;20.656;2023-02-23T05:31:11;12.10;;;6.00;;
75851;SDS011;64500;52.632;20.656;2023-02-23T05:33:38;11.60;;;6.10;;
75851;SDS011;64500;52.632;20.656;2023-02-23T05:36:13;10.80;;;5.80;;
75851;SDS011;64500;52.632;20.656;2023-02-23T05:38:42;11.40;;;6.10;;
75851;SDS011;64500;52.632;20.656;2023-02-23T05:41:12;10.60;;;5.70;;
75851;SDS011;64500;52.632;20.656;2023-02-23T05:43:43;10.80;;;5.30;;
75851;SDS011;64500;52.632;20.656;2023-02-23T05:46:15;10.50;;;5.90;;
75851;SDS011;64500;52.632;20.656;2023-02-23T05:48:43;10.40;;;5.70;;
75851;SDS011;64500;52.632;20.656;2023-02-23T05:51:11;9.50;;;5.80;;
75851;SDS011;64500;52.632;20.656;2023-02-23T05:53:40;10.80;;;6.30;;
75851;SDS011;64500;52.632;20.656;2023-02-23T05:56:10;11.60;;;6.00;;
75851;SDS011;64500;52.632;20.656;2023-02-23T05:58:43;11.80;;;6.20;;
75851;SDS011;64500;52.632;20.656;2023-02-23T06:01:10;12.70;;;6.80;;
75851;SDS011;64500;52.632;20.656;2023-02-23T06:03:38;12.20;;;6.50;;
75851;SDS011;64500;52.632;20.656;2023-02-23T06:06:05;11.20;;;5.90;;
75851;SDS011;64500;52.632;20.656;2023-02-23T06:08:33;11.70;;;6.10;;
75851;SDS011;64500;52.632;20.656;2023-02-23T06:11:00;11.60;;;6.10;;
75851;SDS011;64500;52.632;20.656;2023-02-23T06:13:28;10.90;;;5.90;;
75851;SDS011;64500;52.632;20.656;2023-02-23T06:15:57;10.50;;;6.20;;
75851;SDS011;64500;52.632;20.656;2023-02-23T06:18:25;12.80;;;6.50;;
75851;SDS011;64500;52.632;20.656;2023-02-23T06:20:53;13.00;;;6.70;;
75851;SDS011;64500;52.632;20.656;2023-02-23T06:23:20;12.80;;;6.60;;
75851;SDS011;64500;52.632;20.656;2023-02-23T06:25:47;12.60;;;6.60;;
75851;SDS011;64500;52.632;20.656;2023-02-23T06:28:14;12.10;;;6.70;;
75851;SDS011;64500;52.632;20.656;2023-02-23T06:30:42;11.90;;;6.40;;
75851;SDS011;64500;52.632;20.656;2023-02-23T06:33:10;11.00;;;6.10;;
75851;SDS011;64500;52.632;20.656;2023-02-23T06:35:37;10.90;;;6.20;;
75851;SDS011;64500;52.632;20.656;2023-02-23T06:38:05;11.50;;;6.00;;
75851;SDS011;64500;52.632;20.656;2023-02-23T06:40:32;12.00;;;6.60;;
75851;SDS011;64500;52.632;20.656;2023-02-23T06:42:59;13.40;;;6.30;;
75851;SDS011;64500;52.632;20.656;2023-02-23T06:45:29;12.10;;;6.60;;
75851;SDS011;64500;52.632;20.656;2023-02-23T06:47:58;12.40;;;6.70;;
75851;SDS011;64500;52.632;20.656;2023-02-23T06:50:26;11.60;;;6.30;;
75851;SDS011;64500;52.632;20.656;2023-02-23T06:52:54;11.60;;;6.30;;
75851;SDS011;64500;52.632;20.656;2023-02-23T06:55:23;12.80;;;6.70;;
75851;SDS011;64500;52.632;20.656;2023-02-23T06:57:51;12.80;;;6.40;;
75851;SDS011;64500;52.632;20.656;2023-02-23T07:00:20;11.80;;;6.60;;
75851;SDS011;64500;52.632;20.656;2023-02-23T07:02:47;11.60;;;5.80;;
75851;SDS011;64500;52.632;20.656;2023-02-23T07:05:14;11.80;;;6.60;;
75851;SDS011;64500;52.632;20.656;2023-02-23T07:07:42;12.20;;;6.30;;
75851;SDS011;64500;52.632;20.656;2023-02-23T07:10:10;11.40;;;5.90;;
75851;SDS011;64500;52.632;20.656;2023-02-23T07:12:38;13.10;;;6.70;;
75851;SDS011;64500;52.632;20.656;2023-02-23T07:15:05;13.40;;;6.60;;
75851;SDS011;64500;52.632;20.656;2023-02-23T07:17:33;11.60;;;6.10;;
75851;SDS011;64500;52.632;20.656;2023-02-23T07:20:00;12.80;;;6.50;;
75851;SDS011;64500;52.632;20.656;2023-02-23T07:22:28;11.90;;;6.40;;
75851;SDS011;64500;52.632;20.656;2023-02-23T07:24:56;12.00;;;6.20;;
75851;SDS011;64500;52.632;20.656;2023-02-23T07:27:23;11.90;;;6.50;;
75851;SDS011;64500;52.632;20.656;2023-02-23T07:29:53;12.60;;;7.00;;
75851;SDS011;64500;52.632;20.656;2023-02-23T07:32:20;12.70;;;6.30;;
75851;SDS011;64500;52.632;20.656;2023-02-23T07:34:47;12.10;;;6.60;;
75851;SDS011;64500;52.632;20.656;2023-02-23T07:37:14;11.70;;;6.60;;
75851;SDS011;64500;52.632;20.656;2023-02-23T07:39:43;13.20;;;6.70;;
75851;SDS011;64500;52.632;20.656;2023-02-23T07:42:10;16.10;;;7.80;;
75851;SDS011;64500;52.632;20.656;2023-02-23T07:44:38;15.30;;;7.50;;
75851;SDS011;64500;52.632;20.656;2023-02-23T07:47:06;20.60;;;8.60;;
75851;SDS011;64500;52.632;20.656;2023-02-23T07:49:33;21.10;;;8.60;;
75851;SDS011;64500;52.632;20.656;2023-02-23T07:52:01;28.10;;;9.50;;
75851;SDS011;64500;52.632;20.656;2023-02-23T07:54:28;28.10;;;9.40;;
75851;SDS011;64500;52.632;20.656;2023-02-23T07:56:56;32.40;;;9.40;;
75851;SDS011;64500;52.632;20.656;2023-02-23T07:59:24;29.90;;;10.90;;
75851;SDS011;64500;52.632;20.656;2023-02-23T08:01:52;29.30;;;9.20;;
75851;SDS011;64500;52.632;20.656;2023-02-23T08:04:20;29.10;;;8.50;;
75851;SDS011;64500;52.632;20.656;2023-02-23T08:06:47;26.60;;;9.90;;
75851;SDS011;64500;52.632;20.656;2023-02-23T08:09:14;39.60;;;9.80;;
75851;SDS011;64500;52.632;20.656;2023-02-23T08:11:42;29.90;;;9.90;;
75851;SDS011;64500;52.632;20.656;2023-02-23T08:14:09;33.30;;;9.60;;
75851;SDS011;64500;52.632;20.656;2023-02-23T08:16:36;42.60;;;9.30;;
75851;SDS011;64500;52.632;20.656;2023-02-23T08:19:04;32.80;;;8.90;;
75851;SDS011;64500;52.632;20.656;2023-02-23T08:21:31;26.40;;;9.70;;
75851;SDS011;64500;52.632;20.656;2023-02-23T08:23:58;34.20;;;10.50;;
75851;SDS011;64500;52.632;20.656;2023-02-23T08:26:26;86.90;;;14.20;;
75851;SDS011;64500;52.632;20.656;2023-02-23T08:28:53;115.40;;;16.60;;
75851;SDS011;64500;52.632;20.656;2023-02-23T08:31:21;583.20;;;46.30;;
75851;SDS011;64500;52.632;20.656;2023-02-23T08:33:49;814.80;;;74.60;;
75851;SDS011;64500;52.632;20.656;2023-02-23T08:36:17;515.40;;;45.20;;
75851;SDS011;64500;52.632;20.656;2023-02-23T08:38:44;291.10;;;26.30;;
75851;SDS011;64500;52.632;20.656;2023-02-23T08:41:12;216.50;;;22.50;;
75851;SDS011;64500;52.632;20.656;2023-02-23T08:43:39;300.20;;;27.10;;
75851;SDS011;64500;52.632;20.656;2023-02-23T08:46:07;370.90;;;31.90;;
75851;SDS011;64500;52.632;20.656;2023-02-23T08:48:34;332.00;;;30.40;;
75851;SDS011;64500;52.632;20.656;2023-02-23T08:51:02;363.10;;;32.40;;
75851;SDS011;64500;52.632;20.656;2023-02-23T08:53:30;320.30;;;27.30;;
75851;SDS011;64500;52.632;20.656;2023-02-23T08:55:58;341.50;;;30.00;;
75851;SDS011;64500;52.632;20.656;2023-02-23T08:58:27;381.00;;;36.60;;
75851;SDS011;64500;52.632;20.656;2023-02-23T09:00:56;458.00;;;44.60;;
75851;SDS011;64500;52.632;20.656;2023-02-23T09:03:25;462.20;;;43.20;;
75851;SDS011;64500;52.632;20.656;2023-02-23T09:05:54;427.60;;;42.80;;
75851;SDS011;64500;52.632;20.656;2023-02-23T09:08:23;377.60;;;36.30;;
75851;SDS011;64500;52.632;20.656;2023-02-23T09:10:51;322.90;;;30.30;;
75851;SDS011;64500;52.632;20.656;2023-02-23T09:13:19;291.20;;;29.00;;
75851;SDS011;64500;52.632;20.656;2023-02-23T09:15:47;249.30;;;23.20;;
75851;SDS011;64500;52.632;20.656;2023-02-23T09:18:14;199.90;;;21.90;;
75851;SDS011;64500;52.632;20.656;2023-02-23T09:20:43;191.30;;;21.30;;
75851;SDS011;64500;52.632;20.656;2023-02-23T09:23:11;182.20;;;20.50;;
75851;SDS011;64500;52.632;20.656;2023-02-23T09:25:39;159.50;;;18.20;;
75851;SDS011;64500;52.632;20.656;2023-02-23T09:28:12;119.30;;;14.50;;
75851;SDS011;64500;52.632;20.656;2023-02-23T09:30:45;103.70;;;17.00;;
75851;SDS011;64500;52.632;20.656;2023-02-23T09:33:13;74.70;;;13.30;;
75851;SDS011;64500;52.632;20.656;2023-02-23T09:35:40;78.80;;;13.20;;
75851;SDS011;64500;52.632;20.656;2023-02-23T09:38:07;74.80;;;12.30;;
75851;SDS011;64500;52.632;20.656;2023-02-23T09:40:45;64.60;;;12.40;;
75851;SDS011;64500;52.632;20.656;2023-02-23T09:48:48;34.20;;;9.40;;
75851;SDS011;64500;52.632;20.656;2023-02-23T09:51:17;32.30;;;9.30;;
75851;SDS011;64500;52.632;20.656;2023-02-23T09:53:48;40.10;;;10.40;;
75851;SDS011;64500;52.632;20.656;2023-02-23T09:56:23;20.30;;;9.00;;
75851;SDS011;64500;52.632;20.656;2023-02-23T09:59:04;21.40;;;8.40;;
75851;SDS011;64500;52.632;20.656;2023-02-23T10:01:42;24.00;;;8.90;;
75851;SDS011;64500;52.632;20.656;2023-02-23T10:23:22;18.80;;;8.10;;
75851;SDS011;64500;52.632;20.656;2023-02-23T10:25:56;19.10;;;9.60;;
75851;SDS011;64500;52.632;20.656;2023-02-23T10:28:26;17.60;;;9.00;;
75851;SDS011;64500;52.632;20.656;2023-02-23T10:30:58;18.30;;;9.00;;
75851;SDS011;64500;52.632;20.656;2023-02-23T10:33:33;25.70;;;9.00;;
75851;SDS011;64500;52.632;20.656;2023-02-23T10:36:09;16.20;;;8.10;;
75851;SDS011;64500;52.632;20.656;2023-02-23T10:38:42;15.90;;;8.80;;
75851;SDS011;64500;52.632;20.656;2023-02-23T10:41:10;18.00;;;9.20;;
75851;SDS011;64500;52.632;20.656;2023-02-23T10:43:39;15.00;;;8.60;;
75851;SDS011;64500;52.632;20.656;2023-02-23T10:46:06;16.60;;;8.40;;
75851;SDS011;64500;52.632;20.656;2023-02-23T10:48:43;13.60;;;7.80;;
75851;SDS011;64500;52.632;20.656;2023-02-23T10:51:13;13.90;;;8.00;;
75851;SDS011;64500;52.632;20.656;2023-02-23T10:53:47;17.70;;;9.40;;
75851;SDS011;64500;52.632;20.656;2023-02-23T10:56:16;14.00;;;8.60;;
75851;SDS011;64500;52.632;20.656;2023-02-23T10:58:48;17.10;;;9.30;;
75851;SDS011;64500;52.632;20.656;2023-02-23T11:01:36;15.60;;;8.70;;
75851;SDS011;64500;52.632;20.656;2023-02-23T11:04:15;16.30;;;8.60;;
75851;SDS011;64500;52.632;20.656;2023-02-23T11:06:48;15.40;;;8.90;;
75851;SDS011;64500;52.632;20.656;2023-02-23T11:12:03;14.80;;;8.60;;
75851;SDS011;64500;52.632;20.656;2023-02-23T11:14:42;15.00;;;8.30;;
75851;SDS011;64500;52.632;20.656;2023-02-23T11:17:22;14.60;;;9.20;;
75851;SDS011;64500;52.632;20.656;2023-02-23T11:20:05;15.00;;;8.70;;
75851;SDS011;64500;52.632;20.656;2023-02-23T11:22:35;16.20;;;9.10;;
75851;SDS011;64500;52.632;20.656;2023-02-23T11:28:16;16.20;;;9.30;;
75851;SDS011;64500;52.632;20.656;2023-02-23T11:30:48;13.50;;;7.90;;
75851;SDS011;64500;52.632;20.656;2023-02-23T11:33:18;14.80;;;9.20;;
75851;SDS011;64500;52.632;20.656;2023-02-23T11:35:57;14.20;;;8.40;;
75851;SDS011;64500;52.632;20.656;2023-02-23T11:38:27;16.30;;;9.10;;
75851;SDS011;64500;52.632;20.656;2023-02-23T11:40:59;15.60;;;9.10;;
75851;SDS011;64500;52.632;20.656;2023-02-23T11:43:30;14.60;;;9.00;;
75851;SDS011;64500;52.632;20.656;2023-02-23T11:46:00;16.40;;;8.90;;
75851;SDS011;64500;52.632;20.656;2023-02-23T11:48:30;17.40;;;9.20;;
75851;SDS011;64500;52.632;20.656;2023-02-23T11:51:09;16.30;;;9.00;;
75851;SDS011;64500;52.632;20.656;2023-02-23T11:53:38;14.20;;;8.70;;
75851;SDS011;64500;52.632;20.656;2023-02-23T11:56:09;14.30;;;8.70;;
75851;SDS011;64500;52.632;20.656;2023-02-23T11:58:48;16.50;;;8.80;;
75851;SDS011;64500;52.632;20.656;2023-02-23T12:01:19;18.80;;;10.10;;
75851;SDS011;64500;52.632;20.656;2023-02-23T12:06:50;12.70;;;8.10;;
75851;SDS011;64500;52.632;20.656;2023-02-23T12:09:38;17.60;;;9.00;;
75851;SDS011;64500;52.632;20.656;2023-02-23T12:12:08;17.10;;;9.60;;
75851;SDS011;64500;52.632;20.656;2023-02-23T12:14:48;14.10;;;9.10;;
75851;SDS011;64500;52.632;20.656;2023-02-23T12:17:27;15.20;;;9.00;;
75851;SDS011;64500;52.632;20.656;2023-02-23T12:20:08;16.70;;;9.50;;
75851;SDS011;64500;52.632;20.656;2023-02-23T12:22:45;13.70;;;9.00;;
75851;SDS011;64500;52.632;20.656;2023-02-23T12:25:27;15.40;;;8.90;;
75851;SDS011;64500;52.632;20.656;2023-02-23T12:30:52;15.40;;;9.20;;
75851;SDS011;64500;52.632;20.656;2023-02-23T12:33:38;17.30;;;9.30;;
75851;SDS011;64500;52.632;20.656;2023-02-23T12:41:42;16.60;;;9.20;;
75851;SDS011;64500;52.632;20.656;2023-02-23T12:47:18;15.10;;;9.40;;
75851;SDS011;64500;52.632;20.656;2023-02-23T12:49:56;16.70;;;9.80;;
75851;SDS011;64500;52.632;20.656;2023-02-23T12:52:36;16.30;;;9.40;;
75851;SDS011;64500;52.632;20.656;2023-02-23T12:55:45;15.70;;;9.30;;
75851;SDS011;64500;52.632;20.656;2023-02-23T12:58:17;14.80;;;8.50;;
75851;SDS011;64500;52.632;20.656;2023-02-23T13:06:38;15.70;;;9.20;;
75851;SDS011;64500;52.632;20.656;2023-02-23T13:10:08;15.90;;;9.20;;
75851;SDS011;64500;52.632;20.656;2023-02-23T13:12:20;16.90;;;9.30;;
75851;SDS011;64500;52.632;20.656;2023-02-23T13:15:14;15.30;;;8.50;;
75851;SDS011;64500;52.632;20.656;2023-02-23T13:18:08;14.90;;;8.80;;
75851;SDS011;64500;52.632;20.656;2023-02-23T13:31:29;16.20;;;9.30;;
75851;SDS011;64500;52.632;20.656;2023-02-23T13:34:00;15.20;;;8.70;;
75851;SDS011;64500;52.632;20.656;2023-02-23T13:36:31;18.30;;;8.80;;
75851;SDS011;64500;52.632;20.656;2023-02-23T13:39:22;16.90;;;8.30;;
75851;SDS011;64500;52.632;20.656;2023-02-23T13:50:25;16.00;;;9.00;;
75851;SDS011;64500;52.632;20.656;2023-02-23T13:52:59;19.00;;;8.60;;
75851;SDS011;64500;52.632;20.656;2023-02-23T13:58:11;16.80;;;8.80;;
75851;SDS011;64500;52.632;20.656;2023-02-23T14:00:41;14.50;;;8.20;;
75851;SDS011;64500;52.632;20.656;2023-02-23T14:03:19;13.60;;;8.20;;
75851;SDS011;64500;52.632;20.656;2023-02-23T14:05:51;15.00;;;8.70;;
75851;SDS011;64500;52.632;20.656;2023-02-23T14:08:27;15.70;;;8.60;;
75851;SDS011;64500;52.632;20.656;2023-02-23T14:11:00;16.20;;;8.60;;
75851;SDS011;64500;52.632;20.656;2023-02-23T14:13:30;16.70;;;8.10;;
75851;SDS011;64500;52.632;20.656;2023-02-23T14:16:18;19.10;;;8.70;;
75851;SDS011;64500;52.632;20.656;2023-02-23T14:22:08;15.40;;;7.60;;
75851;SDS011;64500;52.632;20.656;2023-02-23T14:24:38;14.60;;;8.30;;
75851;SDS011;64500;52.632;20.656;2023-02-23T14:32:42;15.60;;;7.80;;
75851;SDS011;64500;52.632;20.656;2023-02-23T14:38:02;15.40;;;8.20;;
75851;SDS011;64500;52.632;20.656;2023-02-23T14:40:38;14.00;;;7.70;;
75851;SDS011;64500;52.632;20.656;2023-02-23T14:46:01;16.80;;;7.60;;
75851;SDS011;64500;52.632;20.656;2023-02-23T14:48:32;14.00;;;7.80;;
75851;SDS011;64500;52.632;20.656;2023-02-23T14:51:36;14.00;;;8.00;;
75851;SDS011;64500;52.632;20.656;2023-02-23T14:54:08;16.60;;;8.00;;
75851;SDS011;64500;52.632;20.656;2023-02-23T14:56:44;17.00;;;7.90;;
75851;SDS011;64500;52.632;20.656;2023-02-23T14:59:22;14.60;;;7.90;;
75851;SDS011;64500;52.632;20.656;2023-02-23T15:01:58;12.90;;;7.80;;
75851;SDS011;64500;52.632;20.656;2023-02-23T15:04:26;15.80;;;7.60;;
75851;SDS011;64500;52.632;20.656;2023-02-23T15:06:56;15.00;;;8.30;;
75851;SDS011;64500;52.632;20.656;2023-02-23T15:09:28;14.00;;;8.00;;
75851;SDS011;64500;52.632;20.656;2023-02-23T15:11:59;15.10;;;8.00;;
75851;SDS011;64500;52.632;20.656;2023-02-23T15:14:36;16.80;;;7.80;;
75851;SDS011;64500;52.632;20.656;2023-02-23T15:17:04;13.20;;;7.70;;
75851;SDS011;64500;52.632;20.656;2023-02-23T15:19:33;15.80;;;8.20;;
75851;SDS011;64500;52.632;20.656;2023-02-23T15:22:02;15.40;;;7.70;;
75851;SDS011;64500;52.632;20.656;2023-02-23T15:24:38;13.00;;;7.40;;
75851;SDS011;64500;52.632;20.656;2023-02-23T15:27:21;14.20;;;7.40;;
75851;SDS011;64500;52.632;20.656;2023-02-23T15:29:52;16.00;;;8.50;;
75851;SDS011;64500;52.632;20.656;2023-02-23T15:32:23;13.60;;;7.70;;
75851;SDS011;64500;52.632;20.656;2023-02-23T15:34:52;13.70;;;7.60;;
75851;SDS011;64500;52.632;20.656;2023-02-23T15:40:18;16.10;;;8.20;;
75851;SDS011;64500;52.632;20.656;2023-02-23T15:42:51;17.20;;;8.50;;
75851;SDS011;64500;52.632;20.656;2023-02-23T15:45:41;14.40;;;8.20;;
75851;SDS011;64500;52.632;20.656;2023-02-23T15:48:13;15.20;;;8.50;;
75851;SDS011;64500;52.632;20.656;2023-02-23T15:50:50;15.90;;;8.70;;
75851;SDS011;64500;52.632;20.656;2023-02-23T15:53:28;15.70;;;8.10;;
75851;SDS011;64500;52.632;20.656;2023-02-23T15:56:41;15.40;;;8.20;;
75851;SDS011;64500;52.632;20.656;2023-02-23T15:58:57;16.20;;;8.30;;
75851;SDS011;64500;52.632;20.656;2023-02-23T16:01:29;14.80;;;8.10;;
75851;SDS011;64500;52.632;20.656;2023-02-23T16:04:15;16.50;;;8.40;;
75851;SDS011;64500;52.632;20.656;2023-02-23T16:06:51;14.60;;;8.40;;
75851;SDS011;64500;52.632;20.656;2023-02-23T16:11:54;16.90;;;9.60;;
75851;SDS011;64500;52.632;20.656;2023-02-23T16:14:27;14.90;;;8.20;;
75851;SDS011;64500;52.632;20.656;2023-02-23T16:17:20;16.30;;;8.80;;
75851;SDS011;64500;52.632;20.656;2023-02-23T16:19:48;17.70;;;8.80;;
75851;SDS011;64500;52.632;20.656;2023-02-23T16:22:20;14.40;;;8.50;;
75851;SDS011;64500;52.632;20.656;2023-02-23T16:24:53;16.30;;;8.20;;
75851;SDS011;64500;52.632;20.656;2023-02-23T16:27:27;15.20;;;9.00;;
75851;SDS011;64500;52.632;20.656;2023-02-23T16:29:57;16.80;;;9.80;;
75851;SDS011;64500;52.632;20.656;2023-02-23T16:32:34;16.30;;;8.90;;
75851;SDS011;64500;52.632;20.656;2023-02-23T16:40:53;16.70;;;8.70;;
75851;SDS011;64500;52.632;20.656;2023-02-23T16:43:20;17.00;;;8.80;;
75851;SDS011;64500;52.632;20.656;2023-02-23T16:45:48;18.30;;;9.20;;
75851;SDS011;64500;52.632;20.656;2023-02-23T16:48:15;17.10;;;9.00;;
75851;SDS011;64500;52.632;20.656;2023-02-23T16:50:43;17.30;;;9.50;;
75851;SDS011;64500;52.632;20.656;2023-02-23T16:53:12;18.00;;;9.00;;
75851;SDS011;64500;52.632;20.656;2023-02-23T16:55:41;17.60;;;9.50;;
75851;SDS011;64500;52.632;20.656;2023-02-23T16:58:15;18.70;;;9.00;;
75851;SDS011;64500;52.632;20.656;2023-02-23T17:00:45;17.30;;;9.60;;
75851;SDS011;64500;52.632;20.656;2023-02-23T17:03:23;16.60;;;9.20;;
75851;SDS011;64500;52.632;20.656;2023-02-23T17:05:52;18.70;;;9.60;;
75851;SDS011;64500;52.632;20.656;2023-02-23T17:08:20;18.20;;;10.10;;